Forside
METAR-TAF:

METAR-TAF

Lufthavne :

Southern Wisconsin Regional Airport

Janesville, Wisconsin, USA

Breddekreds: 42-37N, længdekreds: 089-02W, højde: 246 m

Aktuelle vejr

Denne rapport blev lavet for 1 time og 1 minutter siden, kl. 18:45 UTC
Vind 12 kt fra sydvest
Temperatur 4°C
Fugtighed 60%
Tryk 1020 hPa
Sigt: 16.1 km
Spredte skyer i en højde af 25000 ft

METAR: KJVL 221845Z 22012KT 10SM SCT250 04/M03 A3013

Tid: 13:46 (19:46 UTC)


TAF: fraværende

Vejrobservationer og prognoser fra mere end 4000 lufthavne (METAR og TAF).

De gule og røde prikker repræsenterer de meteorologiske stationer.

Flyt musen over at se navnet på stationen.

Så klik over at se vejr observationer og prognoser.

At skifte det kort: Klik på de grønne knapper med et sort kors for at zoome ind; på den grønne knap med en bindestreg for at zoome ud; eller på de grønne pile for tilstødende kort.


METAR-TAF: